Tremont City, Ohio
Current Conditions -  °F | °C
As of 3:07 PM on Thursday 29 Jan 2015 (Local Time) from KSGH Reporting Station
Haze Haze  
Wind Chill: 27°   Ceiling: 1100
Heat Index: 37°   Visibility: 3mi
Dew Point: 36°   Wind: 22mph
Humidity: 93%   Direction: 260°W
Pressure: 29.84"   Gusts: 33mph
Location:  40.01°N, 83.84°W
Report Text: KSGH 292007Z AUTO 26019G29KT 3SM BR OVC011 03/02 A2984 RMK AO2 PK WND 26029/2004
Loading
Personal Weather Stations






























Interactive Weather Map New forecast layout! Learn more

10-Day Weather Forecast

Advertisements
Track Severe Weather on mobile